createdAt,value
2019-03-09T00:38:22.706Z,81.80
2019-03-09T01:39:37.679Z,77.90
2019-03-09T01:45:44.984Z,77.20
2019-03-09T01:48:20.746Z,75.70
2019-03-09T01:50:55.241Z,76.10
2019-03-09T01:53:49.675Z,75.40
2019-03-09T01:56:27.569Z,74.60
2019-03-09T01:59:13.125Z,73.70
2019-03-09T02:07:36.282Z,75.80
2019-03-09T02:10:16.330Z,76.20
2019-03-09T02:12:46.988Z,75.40
2019-03-09T02:15:28.484Z,74.80
2019-03-09T02:23:54.846Z,72.50
2019-03-09T02:26:33.015Z,72.70
2019-03-09T02:29:07.535Z,74.50
2019-03-09T02:34:35.370Z,75.00
2019-03-09T02:37:05.557Z,74.70
2019-03-09T02:39:41.143Z,74.50
2019-03-09T02:42:28.730Z,75.40
2019-03-09T02:44:58.292Z,75.40
2019-03-09T02:47:28.114Z,76.50
2019-03-09T02:50:00.431Z,76.20
2019-03-09T02:55:20.521Z,75.70
2019-03-09T03:00:46.830Z,74.80
2019-03-09T03:03:17.380Z,75.20
2019-03-09T03:05:48.000Z,75.20
2019-03-09T03:08:18.014Z,74.80
2019-03-09T03:10:46.944Z,74.60
2019-03-09T03:13:26.242Z,75.00
2019-03-09T03:15:56.164Z,74.60
2019-03-09T03:18:25.423Z,74.00
2019-03-09T03:20:56.007Z,73.00
2019-03-09T03:23:25.030Z,74.20
2019-03-09T03:25:54.400Z,74.50
2019-03-09T03:28:23.907Z,74.70
2019-03-09T03:30:52.973Z,76.20
2019-03-09T03:33:21.943Z,76.10
2019-03-09T03:35:56.711Z,74.80
2019-03-09T03:38:26.105Z,75.90
2019-03-09T03:40:55.881Z,76.00
2019-03-09T03:43:28.000Z,75.60
2019-03-09T03:45:56.942Z,74.80
2019-03-09T03:48:28.113Z,73.80
2019-03-09T03:51:02.582Z,74.00
2019-03-09T03:53:32.130Z,74.30
2019-03-09T03:56:04.116Z,74.70
2019-03-09T03:58:33.383Z,74.20
2019-03-09T04:01:03.176Z,74.50
2019-03-09T04:03:32.982Z,75.80
2019-03-09T04:06:02.728Z,76.20
2019-03-09T04:08:31.889Z,76.60
2019-03-09T04:11:05.831Z,76.30
2019-03-09T04:13:34.796Z,76.10
2019-03-09T04:16:04.112Z,76.60
2019-03-09T04:18:33.099Z,76.50
2019-03-09T04:21:02.162Z,77.50
2019-03-09T04:23:33.320Z,77.30
2019-03-09T04:26:03.065Z,78.30
2019-03-09T04:28:33.731Z,79.60
2019-03-09T04:31:03.196Z,79.60
2019-03-09T04:33:33.505Z,80.00
2019-03-09T04:36:05.709Z,78.90
2019-03-09T04:38:39.060Z,79.40
2019-03-09T04:41:10.751Z,79.30
2019-03-09T04:43:41.997Z,79.10
2019-03-09T04:46:18.828Z,78.60
2019-03-09T04:48:54.265Z,79.30
2019-03-09T04:51:27.750Z,79.70
2019-03-09T04:53:56.786Z,78.70
2019-03-09T04:56:25.800Z,77.80
2019-03-09T04:59:01.313Z,78.50
2019-03-09T05:01:35.358Z,78.90
2019-03-09T05:04:25.890Z,76.80
2019-03-09T05:07:12.491Z,77.60
2019-03-09T05:09:53.416Z,78.60
2019-03-09T05:12:23.836Z,79.70
2019-03-09T05:14:56.493Z,81.40
2019-03-09T05:17:35.877Z,80.80
2019-03-09T05:20:16.084Z,80.50
2019-03-09T05:22:46.617Z,78.60
2019-03-09T05:25:18.176Z,78.30
2019-03-09T05:27:49.364Z,78.70
2019-03-09T05:30:40.766Z,78.50
2019-03-09T05:33:15.305Z,79.20
2019-03-09T05:35:52.801Z,80.40
2019-03-09T05:38:22.849Z,79.80
2019-03-09T05:40:52.165Z,79.40
2019-03-09T05:43:31.408Z,81.20
2019-03-09T05:46:00.466Z,80.60
2019-03-09T05:48:30.943Z,81.40
2019-03-09T05:51:00.847Z,80.00
2019-03-09T05:53:34.187Z,80.40
2019-03-09T05:56:04.948Z,79.50
2019-03-09T05:58:37.007Z,80.70
2019-03-09T06:01:09.310Z,80.90
2019-03-09T06:03:38.546Z,80.90
2019-03-09T06:06:12.260Z,80.40
2019-03-09T06:08:48.807Z,80.40
2019-03-09T06:11:18.946Z,81.40
2019-03-09T06:13:53.555Z,81.10
2019-03-09T06:19:27.599Z,80.80
2019-03-09T06:21:58.459Z,80.20
2019-03-09T06:24:31.571Z,80.80
2019-03-09T06:27:06.355Z,81.80
2019-03-09T06:29:37.600Z,81.80
2019-03-09T06:37:28.607Z,82.40
2019-03-09T06:39:59.011Z,83.70
2019-03-09T06:42:36.405Z,84.00
2019-03-09T06:48:15.219Z,83.80
2019-03-09T06:53:52.780Z,84.30
2019-03-09T06:59:33.111Z,82.10
2019-03-09T07:04:56.537Z,82.00
2019-03-09T07:17:10.645Z,82.90
2019-03-09T07:19:44.419Z,84.00
2019-03-09T07:25:03.672Z,84.60
2019-03-09T07:27:34.741Z,84.00
2019-03-09T07:30:10.359Z,83.40
2019-03-09T07:32:41.441Z,83.20
2019-03-09T07:35:13.399Z,83.00
2019-03-09T07:37:42.604Z,83.60
2019-03-09T07:40:12.339Z,82.80
2019-03-09T07:42:44.879Z,83.20
2019-03-09T07:45:14.526Z,82.00
2019-03-09T07:47:44.035Z,81.90
2019-03-09T07:50:17.862Z,81.60
2019-03-09T07:52:52.570Z,81.80
2019-03-09T07:55:24.087Z,82.00
2019-03-09T07:57:55.087Z,80.30
2019-03-09T08:00:29.023Z,81.90
2019-03-09T08:05:48.008Z,80.10
2019-03-09T08:08:22.465Z,80.00
2019-03-09T08:10:53.325Z,81.10
2019-03-09T08:13:23.120Z,81.20
2019-03-09T08:15:52.659Z,79.50
2019-03-09T08:18:25.587Z,77.20
2019-03-09T08:20:55.051Z,77.30
2019-03-09T08:23:25.796Z,76.40
2019-03-09T08:25:55.165Z,75.20
2019-03-09T08:28:31.587Z,74.90
2019-03-09T08:31:09.353Z,78.40
2019-03-09T08:33:39.273Z,79.70
2019-03-09T08:36:09.323Z,80.50
2019-03-09T08:38:40.653Z,80.90
2019-03-09T08:41:12.769Z,80.80
2019-03-09T08:43:49.791Z,81.10
2019-03-09T08:46:15.505Z,81.30
2019-03-09T08:48:44.769Z,82.60
2019-03-09T08:51:23.208Z,81.50
2019-03-09T08:53:52.788Z,81.00
2019-03-09T08:56:22.705Z,81.50
2019-03-09T08:58:51.676Z,79.50
2019-03-09T09:01:21.852Z,81.10
2019-03-09T09:03:50.959Z,81.40
2019-03-09T09:06:22.021Z,81.00
2019-03-09T09:08:52.852Z,80.40
2019-03-09T09:11:27.963Z,80.30
2019-03-09T09:13:58.672Z,81.50
2019-03-09T09:16:28.840Z,81.60
2019-03-09T09:18:58.621Z,81.30
2019-03-09T09:21:31.159Z,82.70
2019-03-09T09:24:01.998Z,82.10
2019-03-09T09:26:32.961Z,81.80
2019-03-09T09:29:07.013Z,81.90
2019-03-09T09:31:38.495Z,81.70
2019-03-09T09:34:12.034Z,81.20
2019-03-09T09:36:43.295Z,81.20
2019-03-09T09:39:12.841Z,81.90
2019-03-09T09:41:42.782Z,82.30
2019-03-09T09:44:11.708Z,80.90
2019-03-09T09:49:17.395Z,79.00
2019-03-09T09:51:49.970Z,79.60
2019-03-09T09:54:18.821Z,79.50
2019-03-09T09:56:47.856Z,80.00
2019-03-09T09:59:18.140Z,77.50
2019-03-09T10:01:49.868Z,78.40
2019-03-09T10:04:19.265Z,79.10
2019-03-09T10:06:53.832Z,79.00
2019-03-09T10:09:23.707Z,78.30
2019-03-09T10:11:56.163Z,78.40
2019-03-09T10:14:25.457Z,79.00
2019-03-09T10:16:55.570Z,78.50
2019-03-09T10:19:25.197Z,76.80
2019-03-09T10:21:56.368Z,76.40
2019-03-09T10:24:36.366Z,74.80
2019-03-09T10:27:09.411Z,71.80
2019-03-09T10:29:41.114Z,71.20
2019-03-09T10:32:15.503Z,67.90
2019-03-09T10:34:50.180Z,66.90
2019-03-09T10:37:22.266Z,66.40
2019-03-09T10:39:52.085Z,66.40
2019-03-09T10:42:21.504Z,67.00
2019-03-09T10:44:51.312Z,66.60
2019-03-09T10:47:20.273Z,66.50
2019-03-09T10:49:53.366Z,66.60
2019-03-09T10:52:22.261Z,66.50
2019-03-09T10:54:52.063Z,65.20
2019-03-09T10:57:21.735Z,64.50
2019-03-09T10:59:50.789Z,63.50
2019-03-09T11:02:19.751Z,63.10
2019-03-09T11:04:50.596Z,60.80
2019-03-09T11:07:19.527Z,61.10
2019-03-09T11:10:00.372Z,60.60
2019-03-09T11:12:40.030Z,60.70
2019-03-09T11:15:09.335Z,58.50
2019-03-09T11:20:46.060Z,56.20
2019-03-09T11:23:17.175Z,55.40
2019-03-09T11:25:46.583Z,55.60
2019-03-09T11:28:19.645Z,54.80
2019-03-09T11:30:51.505Z,54.10
2019-03-09T11:33:25.361Z,52.20
2019-03-09T11:36:03.868Z,52.60
2019-03-09T11:38:35.757Z,51.40
2019-03-09T11:41:06.253Z,50.50
2019-03-09T11:43:40.625Z,46.30
2019-03-09T11:46:12.000Z,45.20
2019-03-09T11:48:43.413Z,42.80
2019-03-09T11:51:15.443Z,41.30
2019-03-09T11:53:45.061Z,41.30
2019-03-09T11:56:15.256Z,41.90
2019-03-09T11:58:44.791Z,41.70
2019-03-09T12:01:15.844Z,43.30
2019-03-09T12:03:47.397Z,43.90
2019-03-09T12:06:18.820Z,44.10
2019-03-09T12:08:49.905Z,43.40
2019-03-09T12:11:19.140Z,42.20
2019-03-09T12:13:49.994Z,42.50
2019-03-09T12:16:27.908Z,43.10
2019-03-09T12:18:59.157Z,43.20
2019-03-09T12:21:34.410Z,44.30
2019-03-09T12:24:15.806Z,44.80
2019-03-09T12:26:37.139Z,45.50
2019-03-09T12:29:07.174Z,46.10
2019-03-09T12:31:36.196Z,44.70
2019-03-09T12:34:06.531Z,45.30
2019-03-09T12:36:37.729Z,46.00
2019-03-09T12:39:11.243Z,47.90
2019-03-09T12:41:41.099Z,48.70
2019-03-09T12:44:15.946Z,49.60
2019-03-09T12:46:45.389Z,49.00
2019-03-09T12:49:19.450Z,48.10
2019-03-09T12:51:51.042Z,47.40
2019-03-09T12:54:20.657Z,45.50
2019-03-09T12:56:49.590Z,43.60
2019-03-09T12:59:21.701Z,43.90
2019-03-09T13:01:50.532Z,41.30
2019-03-09T13:04:19.793Z,40.40
2019-03-09T13:07:00.779Z,39.10
2019-03-09T13:09:31.147Z,39.10
2019-03-09T13:12:01.043Z,40.40
2019-03-09T13:14:30.000Z,40.70
2019-03-09T13:16:59.951Z,41.20
2019-03-09T13:19:31.554Z,41.30
2019-03-09T13:22:01.838Z,41.00
2019-03-09T13:24:37.666Z,41.10
2019-03-09T13:27:07.979Z,41.30
2019-03-09T13:29:38.864Z,40.10
2019-03-09T13:32:19.451Z,39.30
2019-03-09T13:34:50.181Z,39.10
2019-03-09T13:37:23.547Z,39.60
2019-03-09T13:39:54.391Z,40.00
2019-03-09T13:42:24.866Z,39.00
2019-03-09T13:44:53.862Z,38.30
2019-03-09T13:47:24.675Z,38.90
2019-03-09T13:49:53.978Z,39.00
2019-03-09T13:52:22.901Z,39.00
2019-03-09T13:54:51.834Z,38.10
2019-03-09T13:57:31.755Z,36.70
2019-03-09T14:00:01.857Z,35.80
2019-03-09T14:02:31.462Z,37.20
2019-03-09T14:05:01.520Z,37.40
2019-03-09T14:07:44.167Z,36.60
2019-03-09T14:10:18.254Z,36.60
2019-03-09T14:13:05.654Z,35.30
2019-03-09T14:15:48.442Z,34.10
2019-03-09T14:18:15.356Z,34.30
2019-03-09T14:20:48.412Z,36.50
2019-03-09T14:23:18.169Z,36.50
2019-03-09T14:25:49.046Z,37.00
2019-03-09T14:28:29.364Z,37.90
2019-03-09T14:31:06.719Z,38.10
2019-03-09T14:33:40.591Z,36.40
2019-03-09T14:36:11.240Z,37.20
2019-03-09T14:38:48.519Z,36.10
2019-03-09T14:41:21.820Z,36.10
2019-03-09T14:43:50.807Z,37.10
2019-03-09T14:46:22.934Z,36.30
2019-03-09T14:48:52.759Z,36.50
2019-03-09T14:51:22.289Z,36.50
2019-03-09T14:54:08.084Z,38.00
2019-03-09T14:56:37.738Z,37.30
2019-03-09T14:59:09.395Z,35.80
2019-03-09T15:01:39.840Z,37.00
2019-03-09T15:04:10.328Z,36.60
2019-03-09T15:06:41.414Z,38.10
2019-03-09T15:09:12.598Z,38.70
2019-03-09T15:11:41.535Z,37.80
2019-03-09T15:14:11.514Z,38.80
2019-03-09T15:16:41.872Z,39.70
2019-03-09T15:19:12.912Z,40.70
2019-03-09T15:24:36.537Z,41.10
2019-03-09T15:27:12.939Z,40.40
2019-03-09T15:29:42.218Z,41.40
2019-03-09T15:32:15.815Z,41.10
2019-03-09T15:34:45.431Z,40.40
2019-03-09T15:37:14.620Z,40.50
2019-03-09T15:39:46.057Z,39.90
2019-03-09T15:42:20.286Z,41.10
2019-03-09T15:44:49.203Z,42.20
2019-03-09T15:47:18.742Z,43.80
2019-03-09T15:49:48.761Z,43.80
2019-03-09T15:52:18.557Z,43.20
2019-03-09T15:54:47.597Z,43.60
2019-03-09T16:00:25.727Z,43.50
2019-03-09T16:03:17.368Z,43.90
2019-03-09T16:05:47.128Z,43.80
2019-03-09T16:08:18.410Z,44.70
2019-03-09T16:10:48.319Z,44.70
2019-03-09T16:13:17.578Z,45.50
2019-03-09T16:15:51.014Z,45.40
2019-03-09T16:18:19.966Z,44.70
2019-03-09T16:20:50.682Z,45.10
2019-03-09T16:23:22.104Z,44.80
2019-03-09T16:25:52.487Z,44.50
2019-03-09T16:28:25.895Z,45.10
2019-03-09T16:30:54.862Z,45.10
2019-03-09T16:33:23.877Z,45.10
2019-03-09T16:35:53.261Z,45.00
2019-03-09T16:38:23.040Z,45.10
2019-03-09T16:40:51.910Z,46.10
2019-03-09T16:43:21.628Z,46.40
2019-03-09T16:45:52.282Z,47.00
2019-03-09T16:48:21.566Z,47.20
2019-03-09T16:51:07.362Z,48.00
2019-03-09T16:53:37.109Z,47.90
2019-03-09T16:56:06.850Z,48.10
2019-03-09T16:58:37.266Z,48.10
2019-03-09T17:01:06.198Z,48.70
2019-03-09T17:03:36.675Z,48.50
2019-03-09T17:06:05.661Z,48.30
2019-03-09T17:08:34.670Z,48.40
2019-03-09T17:11:04.286Z,48.40
2019-03-09T17:13:34.001Z,48.00
2019-03-09T17:16:03.264Z,48.10
2019-03-09T17:18:32.179Z,48.20
2019-03-09T17:21:01.635Z,49.00
2019-03-09T17:23:30.932Z,49.00
2019-03-09T17:25:59.832Z,49.30
2019-03-09T17:28:28.839Z,48.70
2019-03-09T17:30:57.694Z,49.40
2019-03-09T17:33:26.604Z,49.50
2019-03-09T17:35:56.386Z,48.50
2019-03-09T17:38:25.612Z,49.50
2019-03-09T17:40:54.459Z,49.50
2019-03-09T17:43:23.425Z,49.60
2019-03-09T17:45:55.856Z,49.80
2019-03-09T17:48:24.892Z,49.10
2019-03-09T17:50:54.700Z,49.70
2019-03-09T17:53:23.610Z,49.40
2019-03-09T17:55:59.818Z,49.40
2019-03-09T17:58:28.797Z,50.20
2019-03-09T18:00:57.838Z,49.70
2019-03-09T18:03:26.716Z,49.80
2019-03-09T18:05:56.749Z,49.30
2019-03-09T18:08:26.713Z,49.70
2019-03-09T18:10:58.929Z,50.10
2019-03-09T18:13:29.646Z,50.60
2019-03-09T18:15:59.495Z,49.80
2019-03-09T18:18:29.943Z,50.10
2019-03-09T18:20:59.641Z,49.80
2019-03-09T18:23:29.366Z,50.20
2019-03-09T18:25:59.858Z,49.80
2019-03-09T18:28:31.879Z,50.30
2019-03-09T18:31:02.057Z,50.20
2019-03-09T18:33:31.015Z,50.40
2019-03-09T18:36:01.171Z,50.40
2019-03-09T18:38:31.422Z,49.60
2019-03-09T18:41:00.923Z,49.50
2019-03-09T18:43:30.306Z,49.50
2019-03-09T18:45:59.859Z,49.60
2019-03-09T18:48:39.897Z,50.20
2019-03-09T18:51:12.529Z,49.00
2019-03-09T18:53:43.395Z,48.90
2019-03-09T18:56:12.736Z,49.00
2019-03-09T18:58:43.341Z,49.10
2019-03-09T19:01:13.067Z,48.60
2019-03-09T19:03:42.393Z,49.00
2019-03-09T19:06:11.684Z,49.40
2019-03-09T19:08:40.669Z,49.90
2019-03-09T19:11:09.692Z,49.10
2019-03-09T19:13:39.044Z,49.30
2019-03-09T19:16:08.834Z,49.30
2019-03-09T19:18:43.896Z,49.00
2019-03-09T19:21:14.225Z,48.80
2019-03-09T19:23:43.193Z,49.10
2019-03-09T19:26:12.085Z,49.20
2019-03-09T19:28:41.047Z,49.40
2019-03-09T19:31:20.111Z,48.60
2019-03-09T19:33:49.378Z,48.50
2019-03-09T19:36:18.376Z,47.80
2019-03-09T19:38:51.532Z,48.50
2019-03-09T19:41:22.315Z,49.30
2019-03-09T19:43:51.667Z,51.30
2019-03-09T19:46:20.583Z,49.90
2019-03-09T19:48:49.497Z,49.40
2019-03-09T19:51:18.328Z,48.90
2019-03-09T19:53:50.772Z,48.60
2019-03-09T19:56:23.276Z,48.50
2019-03-09T19:58:59.104Z,48.10
2019-03-09T20:01:27.458Z,47.20
2019-03-09T20:03:57.483Z,48.20
2019-03-09T20:06:26.253Z,49.10
2019-03-09T20:08:55.599Z,50.10
2019-03-09T20:11:27.602Z,51.00
2019-03-09T20:13:57.493Z,50.50
2019-03-09T20:16:31.957Z,51.80
2019-03-09T20:19:00.833Z,53.00
2019-03-09T20:21:31.619Z,53.80
2019-03-09T20:24:00.903Z,54.80
2019-03-09T20:26:30.697Z,58.10
2019-03-09T20:28:59.614Z,58.90
2019-03-09T20:31:28.939Z,57.90
2019-03-09T20:33:58.416Z,59.30
2019-03-09T20:36:28.155Z,59.30
2019-03-09T20:38:58.383Z,59.20
2019-03-09T20:41:27.180Z,58.40
2019-03-09T20:43:57.457Z,58.10
2019-03-09T20:46:26.680Z,57.60
2019-03-09T20:48:55.621Z,57.80
2019-03-09T20:51:24.481Z,57.70
2019-03-09T20:53:53.268Z,58.50
2019-03-09T20:56:22.083Z,60.30
2019-03-09T20:58:50.976Z,60.80
2019-03-09T21:01:19.894Z,60.00
2019-03-09T21:03:48.805Z,58.40
2019-03-09T21:06:17.653Z,57.30
2019-03-09T21:08:46.652Z,57.10
2019-03-09T21:11:17.072Z,56.30
2019-03-09T21:13:47.454Z,57.20
2019-03-09T21:16:18.434Z,57.90
2019-03-09T21:18:48.143Z,57.50
2019-03-09T21:21:17.573Z,57.60
2019-03-09T21:23:46.797Z,57.40
2019-03-09T21:26:15.745Z,56.10
2019-03-09T21:28:44.599Z,55.50
2019-03-09T21:31:14.375Z,55.10
2019-03-09T21:33:43.268Z,56.30
2019-03-09T21:36:12.344Z,57.60
2019-03-09T21:38:41.727Z,58.30
2019-03-09T21:41:13.308Z,59.30
2019-03-09T21:43:55.633Z,59.50
2019-03-09T21:46:31.809Z,57.20
2019-03-09T21:49:02.441Z,56.30
2019-03-09T21:51:35.006Z,54.30
2019-03-09T21:54:03.971Z,52.80
2019-03-09T21:56:33.289Z,54.40
2019-03-09T21:59:02.863Z,53.10
2019-03-09T22:01:32.251Z,53.70
2019-03-09T22:04:02.661Z,52.30
2019-03-09T22:06:34.106Z,53.80
2019-03-09T22:09:06.374Z,52.50
2019-03-09T22:11:35.309Z,52.20
2019-03-09T22:14:07.079Z,52.10
2019-03-09T22:16:36.330Z,52.70
2019-03-09T22:19:05.239Z,54.30
2019-03-09T22:21:34.142Z,53.40
2019-03-09T22:24:04.763Z,53.50
2019-03-09T22:26:34.963Z,53.40
2019-03-09T22:29:04.921Z,54.60
2019-03-09T22:31:34.177Z,55.30
2019-03-09T22:34:03.060Z,55.40
2019-03-09T22:36:32.272Z,56.20
2019-03-09T22:39:01.687Z,56.60
2019-03-09T22:41:30.503Z,56.70
2019-03-09T22:43:59.378Z,57.20
2019-03-09T22:46:30.599Z,57.70
2019-03-09T22:49:01.953Z,56.40
2019-03-09T22:51:30.870Z,57.00
2019-03-09T22:53:59.728Z,57.10
2019-03-09T22:56:32.979Z,57.80
2019-03-09T22:59:01.537Z,58.20
2019-03-09T23:04:20.845Z,59.00
2019-03-09T23:06:53.182Z,62.40
